Terminal Aerodrome Forecast
Issued by NWS Jackson, MS

Home | Current Version | Previous Version | Text Only | Print | Product List | Glossary On
Versions: 1 2 3 4 5 6 7 8 9 10 11 12 13 14 15 16
889
FTUS44 KJAN 192326
TAFGWO
TAF
KGWO 192326Z 2000/2024 01006KT P6SM FEW250
     FM201600 05012KT P6SM SKC=

USA.gov is the U.S. government's official web portal to all federal, state and local government web resources and services.